createdAt,value
2022-09-11T00:01:43.735Z,98439.97
2022-09-11T00:06:47.186Z,98439.22
2022-09-11T00:11:52.105Z,98430.66
2022-09-11T00:16:55.548Z,98424.44
2022-09-11T00:21:58.967Z,98428.88
2022-09-11T00:27:03.858Z,98429.00
2022-09-11T00:32:07.662Z,98426.22
2022-09-11T00:37:11.047Z,98433.91
2022-09-11T00:42:16.024Z,98422.41
2022-09-11T00:47:20.743Z,98423.56
2022-09-11T00:52:27.359Z,98420.69
2022-09-11T00:57:37.252Z,98414.78
2022-09-11T01:02:44.951Z,98417.00
2022-09-11T01:07:49.083Z,98419.72
2022-09-11T01:13:02.280Z,98431.03
2022-09-11T01:18:13.383Z,98427.06
2022-09-11T01:23:41.185Z,98418.34
2022-09-11T01:28:52.485Z,98419.19
2022-09-11T01:34:01.350Z,98419.97
2022-09-11T01:39:06.564Z,98427.72
2022-09-11T01:44:17.320Z,98426.13
2022-09-11T01:49:28.802Z,98421.69
2022-09-11T01:54:39.485Z,98419.72
2022-09-11T01:59:48.092Z,98407.19
2022-09-11T02:04:57.680Z,98401.22
2022-09-11T02:10:10.277Z,98394.59
2022-09-11T02:15:17.733Z,98381.38
2022-09-11T02:20:22.297Z,98398.97
2022-09-11T02:25:25.972Z,98398.00
2022-09-11T02:30:34.839Z,98400.81
2022-09-11T02:35:45.457Z,98410.00
2022-09-11T02:40:57.033Z,98412.88
2022-09-11T02:46:18.394Z,98410.09
2022-09-11T02:51:29.577Z,98397.56
2022-09-11T02:56:41.187Z,98399.09
2022-09-11T03:01:52.034Z,98401.00
2022-09-11T03:06:59.952Z,98394.66
2022-09-11T03:12:05.224Z,98405.56
2022-09-11T03:17:13.828Z,98401.91
2022-09-11T03:22:18.273Z,98387.47
2022-09-11T03:27:23.857Z,98394.94
2022-09-11T03:32:29.421Z,98403.16
2022-09-11T03:37:34.838Z,98420.25
2022-09-11T03:42:38.482Z,98422.44
2022-09-11T03:47:43.792Z,98421.66
2022-09-11T03:52:47.377Z,98425.16
2022-09-11T03:57:50.982Z,98419.88
2022-09-11T04:02:57.474Z,98419.16
2022-09-11T04:08:14.487Z,98427.56
2022-09-11T04:13:21.222Z,98430.47
2022-09-11T04:18:27.045Z,98436.66
2022-09-11T04:23:30.618Z,98442.13
2022-09-11T04:28:34.591Z,98441.88
2022-09-11T04:33:41.096Z,98449.50
2022-09-11T04:38:44.998Z,98439.84
2022-09-11T04:43:50.004Z,98444.03
2022-09-11T04:48:59.319Z,98443.13
2022-09-11T04:54:03.862Z,98436.28
2022-09-11T04:59:16.174Z,98436.16
2022-09-11T05:04:36.296Z,98442.59
2022-09-11T05:09:40.215Z,98453.28
2022-09-11T05:14:43.654Z,98442.22
2022-09-11T05:19:49.827Z,98444.41
2022-09-11T05:24:53.488Z,98448.00
2022-09-11T05:29:57.014Z,98444.63
2022-09-11T05:35:01.952Z,98437.88
2022-09-11T05:40:07.536Z,98438.34
2022-09-11T05:45:11.808Z,98436.53
2022-09-11T05:50:17.265Z,98438.09
2022-09-11T05:55:20.916Z,98431.13
2022-09-11T06:00:24.702Z,98430.69
2022-09-11T06:05:29.456Z,98436.03
2022-09-11T06:10:35.563Z,98435.72
2022-09-11T06:15:47.056Z,98441.72
2022-09-11T06:21:00.443Z,98443.38
2022-09-11T06:26:06.891Z,98443.41
2022-09-11T06:31:16.473Z,98445.38
2022-09-11T06:36:26.708Z,98439.19
2022-09-11T06:41:32.857Z,98438.84
2022-09-11T06:46:42.974Z,98441.94
2022-09-11T06:51:50.140Z,98440.63
2022-09-11T06:56:53.632Z,98439.03
2022-09-11T07:01:58.104Z,98441.16
2022-09-11T07:07:04.304Z,98456.44
2022-09-11T07:12:10.041Z,98459.47
2022-09-11T07:17:13.803Z,98452.06
2022-09-11T07:22:20.123Z,98461.13
2022-09-11T07:27:25.809Z,98451.88
2022-09-11T07:32:31.248Z,98462.91
2022-09-11T07:37:36.255Z,98467.28
2022-09-11T07:42:39.821Z,98467.25
2022-09-11T07:47:43.838Z,98473.13
2022-09-11T07:52:48.761Z,98482.03
2022-09-11T07:57:54.210Z,98459.09
2022-09-11T08:02:59.621Z,98460.03
2022-09-11T08:08:11.942Z,98465.81
2022-09-11T08:13:16.972Z,98472.03
2022-09-11T08:18:22.991Z,98472.41
2022-09-11T08:23:28.025Z,98456.19
2022-09-11T08:28:31.561Z,98456.75
2022-09-11T08:33:35.569Z,98449.53
2022-09-11T08:38:40.974Z,98453.75
2022-09-11T08:43:50.942Z,98450.94
2022-09-11T08:49:01.214Z,98446.19
2022-09-11T08:54:06.837Z,98440.03
2022-09-11T08:59:24.054Z,98442.28
2022-09-11T09:04:42.999Z,98451.50
2022-09-11T09:09:58.672Z,98449.41
2022-09-11T09:15:18.654Z,98439.31
2022-09-11T09:20:27.346Z,98449.56
2022-09-11T09:25:38.025Z,98441.25
2022-09-11T09:30:51.278Z,98433.06
2022-09-11T09:35:57.166Z,98425.19
2022-09-11T09:41:24.410Z,98434.91
2022-09-11T09:46:40.380Z,98421.66
2022-09-11T09:51:43.970Z,98421.00
2022-09-11T09:56:58.466Z,98411.75
2022-09-11T10:02:02.133Z,98402.34
2022-09-11T10:07:11.610Z,98404.63
2022-09-11T10:12:20.546Z,98397.94
2022-09-11T10:17:32.406Z,98404.72
2022-09-11T10:22:36.882Z,98402.94
2022-09-11T10:27:48.159Z,98406.44
2022-09-11T10:32:51.661Z,98389.13
2022-09-11T10:38:07.540Z,98389.38
2022-09-11T10:43:24.706Z,98390.63
2022-09-11T10:48:28.493Z,98375.09
2022-09-11T10:53:38.909Z,98375.63
2022-09-11T10:58:46.865Z,98378.31
2022-09-11T11:03:51.097Z,98372.84
2022-09-11T11:09:30.962Z,98373.78
2022-09-11T11:14:56.698Z,98367.81
2022-09-11T11:20:17.017Z,98361.13
2022-09-11T11:25:29.328Z,98352.38
2022-09-11T11:30:39.561Z,98352.97
2022-09-11T11:35:52.421Z,98350.16
2022-09-11T11:41:03.262Z,98350.00
2022-09-11T11:46:15.719Z,98345.97
2022-09-11T11:51:20.793Z,98342.81
2022-09-11T11:56:35.292Z,98337.19
2022-09-11T12:01:48.306Z,98332.59
2022-09-11T12:06:52.054Z,98330.25
2022-09-11T12:11:57.699Z,98333.63
2022-09-11T12:17:19.186Z,98328.59
2022-09-11T12:22:37.973Z,98321.38
2022-09-11T12:28:10.520Z,98324.97
2022-09-11T12:33:56.029Z,98322.22
2022-09-11T12:39:04.315Z,98307.66
2022-09-11T12:44:31.558Z,98317.13
2022-09-11T12:49:37.640Z,98318.13
2022-09-11T12:54:44.663Z,98322.63
2022-09-11T12:59:54.599Z,98322.88
2022-09-11T13:04:59.501Z,98315.13
2022-09-11T13:10:08.789Z,98311.97
2022-09-11T13:15:32.957Z,98312.13
2022-09-11T13:20:38.203Z,98321.34
2022-09-11T13:25:42.465Z,98319.56
2022-09-11T13:30:56.679Z,98311.69
2022-09-11T13:36:03.772Z,98306.56
2022-09-11T13:41:09.561Z,98297.72
2022-09-11T13:46:24.503Z,98298.38
2022-09-11T13:51:31.378Z,98287.81
2022-09-11T13:56:47.468Z,98290.66
2022-09-11T14:01:57.647Z,98293.88
2022-09-11T14:07:02.961Z,98296.78
2022-09-11T14:12:07.616Z,98295.59
2022-09-11T14:17:13.918Z,98290.25
2022-09-11T14:22:26.287Z,98276.75
2022-09-11T14:27:38.937Z,98266.72
2022-09-11T14:32:42.332Z,98262.50
2022-09-11T14:37:49.931Z,98261.22
2022-09-11T14:42:53.524Z,98267.25
2022-09-11T14:47:56.984Z,98256.16
2022-09-11T14:53:02.053Z,98255.53
2022-09-11T14:58:05.609Z,98255.38
2022-09-11T15:03:09.284Z,98255.25
2022-09-11T15:08:14.469Z,98249.31
2022-09-11T15:13:18.172Z,98250.97
2022-09-11T15:18:22.721Z,98246.16
2022-09-11T15:23:27.822Z,98237.41
2022-09-11T15:28:31.699Z,98242.56
2022-09-11T15:33:35.492Z,98244.25
2022-09-11T15:38:41.189Z,98248.41
2022-09-11T15:43:45.378Z,98243.03
2022-09-11T15:48:50.015Z,98245.00
2022-09-11T15:53:54.978Z,98246.91
2022-09-11T15:59:00.370Z,98248.97
2022-09-11T16:04:06.493Z,98241.78
2022-09-11T16:09:14.541Z,98244.03
2022-09-11T16:14:21.192Z,98239.03
2022-09-11T16:19:28.181Z,98237.06
2022-09-11T16:24:37.640Z,98229.72
2022-09-11T16:30:16.008Z,98223.06
2022-09-11T16:35:13.362Z,98227.13
2022-09-11T16:40:18.895Z,98227.06
2022-09-11T16:45:22.865Z,98225.09
2022-09-11T16:50:26.414Z,98226.00
2022-09-11T16:55:31.386Z,98223.25
2022-09-11T17:00:36.175Z,98235.75
2022-09-11T17:05:39.688Z,98230.53
2022-09-11T17:10:46.088Z,98237.81
2022-09-11T17:15:51.133Z,98253.25
2022-09-11T17:20:57.303Z,98252.59
2022-09-11T17:26:06.859Z,98263.00
2022-09-11T17:31:13.362Z,98265.75
2022-09-11T17:36:20.826Z,98262.63
2022-09-11T17:41:25.766Z,98265.84
2022-09-11T17:46:29.631Z,98268.78
2022-09-11T17:51:33.086Z,98266.94
2022-09-11T17:56:38.179Z,98270.72
2022-09-11T18:01:42.409Z,98272.59
2022-09-11T18:06:46.769Z,98283.66
2022-09-11T18:11:53.956Z,98280.66
2022-09-11T18:16:57.594Z,98274.69
2022-09-11T18:22:01.924Z,98277.97
2022-09-11T18:27:06.972Z,98281.00
2022-09-11T18:32:10.403Z,98281.28
2022-09-11T18:37:14.766Z,98279.84
2022-09-11T18:42:19.651Z,98276.84
2022-09-11T18:47:24.646Z,98275.03
2022-09-11T18:52:30.857Z,98268.41
2022-09-11T18:57:40.739Z,98264.13
2022-09-11T19:02:45.878Z,98264.56
2022-09-11T19:07:49.635Z,98261.75
2022-09-11T19:12:54.485Z,98257.16
2022-09-11T19:18:00.195Z,98247.44
2022-09-11T19:23:03.829Z,98242.66
2022-09-11T19:28:09.088Z,98235.66
2022-09-11T19:33:12.761Z,98219.28
2022-09-11T19:38:16.107Z,98221.88
2022-09-11T19:43:23.747Z,98231.25
2022-09-11T19:48:27.118Z,98237.53
2022-09-11T19:53:31.126Z,98235.47
2022-09-11T19:58:36.266Z,98229.44
2022-09-11T20:03:40.772Z,98229.97
2022-09-11T20:08:46.332Z,98223.31
2022-09-11T20:13:51.109Z,98223.47
2022-09-11T20:18:56.084Z,98222.97
2022-09-11T20:24:00.475Z,98237.72
2022-09-11T20:29:08.094Z,98235.16
2022-09-11T20:34:11.639Z,98237.09
2022-09-11T20:39:15.910Z,98228.50
2022-09-11T20:44:20.776Z,98231.16
2022-09-11T20:49:24.466Z,98227.50
2022-09-11T20:54:27.895Z,98221.84
2022-09-11T20:59:32.749Z,98220.28
2022-09-11T21:04:36.503Z,98228.91
2022-09-11T21:09:40.244Z,98220.41
2022-09-11T21:14:45.851Z,98218.00
2022-09-11T21:19:49.267Z,98221.72
2022-09-11T21:24:53.992Z,98218.81
2022-09-11T21:29:58.893Z,98220.38
2022-09-11T21:35:02.355Z,98215.09
2022-09-11T21:40:07.594Z,98211.00
2022-09-11T21:45:12.720Z,98212.34
2022-09-11T21:50:16.263Z,98219.31
2022-09-11T21:55:19.682Z,98216.72
2022-09-11T22:00:24.527Z,98221.03
2022-09-11T22:05:27.999Z,98217.03
2022-09-11T22:10:31.449Z,98218.44
2022-09-11T22:15:39.958Z,98220.22
2022-09-11T22:20:43.833Z,98222.47
2022-09-11T22:25:47.316Z,98212.22
2022-09-11T22:30:52.487Z,98207.56
2022-09-11T22:35:55.949Z,98201.25
2022-09-11T22:40:59.407Z,98194.00
2022-09-11T22:46:04.291Z,98196.81
2022-09-11T22:51:08.495Z,98186.56
2022-09-11T22:56:13.944Z,98196.75
2022-09-11T23:01:22.239Z,98187.66
2022-09-11T23:06:43.772Z,98183.56
2022-09-11T23:11:47.537Z,98183.97
2022-09-11T23:16:52.773Z,98175.88
2022-09-11T23:21:56.370Z,98169.44
2022-09-11T23:26:59.767Z,98176.28
2022-09-11T23:32:04.934Z,98173.00
2022-09-11T23:37:08.411Z,98173.38
2022-09-11T23:42:11.780Z,98185.28
2022-09-11T23:47:16.674Z,98193.22
2022-09-11T23:52:20.170Z,98200.84
2022-09-11T23:57:23.564Z,98211.19
